createdAt,value
2022-11-16T00:00:39.587Z,65.76
2022-11-16T00:01:39.489Z,69.67
2022-11-16T00:02:38.872Z,68.23
2022-11-16T00:03:38.736Z,66.46
2022-11-16T00:04:38.753Z,68.99
2022-11-16T00:05:38.706Z,68.68
2022-11-16T00:06:38.695Z,67.10
2022-11-16T00:07:38.720Z,68.92
2022-11-16T00:08:38.665Z,67.89
2022-11-16T00:09:39.075Z,66.75
2022-11-16T00:10:38.621Z,66.84
2022-11-16T00:11:38.617Z,68.37
2022-11-16T00:12:38.598Z,67.58
2022-11-16T00:13:38.591Z,65.50
2022-11-16T00:14:38.586Z,65.05
2022-11-16T00:15:39.443Z,67.09
2022-11-16T00:16:38.524Z,68.72
2022-11-16T00:17:38.516Z,66.71
2022-11-16T00:18:38.483Z,67.70
2022-11-16T00:19:38.500Z,68.09
2022-11-16T00:20:38.521Z,71.19
2022-11-16T00:21:38.496Z,68.87
2022-11-16T00:22:38.424Z,68.18
2022-11-16T00:23:38.409Z,71.10
2022-11-16T00:24:38.420Z,70.84
2022-11-16T00:25:38.374Z,67.58
2022-11-16T00:26:38.352Z,69.79
2022-11-16T00:27:39.292Z,68.14
2022-11-16T00:28:38.972Z,69.09
2022-11-16T00:29:38.340Z,64.20
2022-11-16T00:30:38.288Z,71.34
2022-11-16T00:31:38.265Z,69.66
2022-11-16T00:32:39.293Z,68.51
2022-11-16T00:33:38.231Z,67.81
2022-11-16T00:34:38.257Z,69.02
2022-11-16T00:35:38.206Z,70.07
2022-11-16T00:36:38.194Z,69.60
2022-11-16T00:37:38.219Z,69.60
2022-11-16T00:38:38.156Z,69.00
2022-11-16T00:39:38.169Z,68.10
2022-11-16T00:40:38.165Z,68.50
2022-11-16T00:41:38.098Z,71.20
2022-11-16T00:42:39.024Z,69.36
2022-11-16T00:43:38.067Z,69.30
2022-11-16T00:44:38.086Z,66.26
2022-11-16T00:45:38.032Z,71.46
2022-11-16T00:46:38.026Z,66.47
2022-11-16T00:47:37.993Z,70.06
2022-11-16T00:48:38.938Z,69.12
2022-11-16T00:49:39.029Z,66.15
2022-11-16T00:50:37.950Z,65.58
2022-11-16T00:51:37.934Z,70.67
2022-11-16T00:52:37.910Z,65.09
2022-11-16T00:53:37.898Z,67.46
2022-11-16T00:54:38.578Z,68.31
2022-11-16T00:55:37.859Z,66.24
2022-11-16T00:56:37.860Z,69.33
2022-11-16T00:57:37.864Z,67.10
2022-11-16T00:58:37.828Z,67.44
2022-11-16T00:59:37.839Z,67.86
2022-11-16T01:00:38.432Z,67.47
2022-11-16T01:01:38.604Z,67.27
2022-11-16T01:02:38.329Z,66.40
2022-11-16T01:03:37.725Z,69.64
2022-11-16T01:04:37.738Z,67.31
2022-11-16T01:05:37.699Z,70.56
2022-11-16T01:06:37.701Z,67.15
2022-11-16T01:07:37.756Z,69.36
2022-11-16T01:08:37.744Z,67.35
2022-11-16T01:09:38.442Z,69.91
2022-11-16T01:10:37.624Z,69.95
2022-11-16T01:11:37.674Z,68.65
2022-11-16T01:12:37.567Z,67.87
2022-11-16T01:13:38.558Z,68.26
2022-11-16T01:14:37.576Z,69.90
2022-11-16T01:15:37.534Z,69.18
2022-11-16T01:16:37.508Z,69.61
2022-11-16T01:17:37.490Z,69.45
2022-11-16T01:18:37.490Z,68.06
2022-11-16T01:19:38.388Z,67.62
2022-11-16T01:20:37.437Z,67.99
2022-11-16T01:21:37.449Z,67.76
2022-11-16T01:22:37.442Z,70.77
2022-11-16T01:23:37.393Z,71.11
2022-11-16T01:24:37.419Z,71.08
2022-11-16T01:25:38.028Z,69.03
2022-11-16T01:26:37.332Z,68.61
2022-11-16T01:27:37.315Z,69.06
2022-11-16T01:28:37.376Z,68.12
2022-11-16T01:29:37.327Z,70.32
2022-11-16T01:30:37.278Z,69.11
2022-11-16T01:31:37.247Z,68.88
2022-11-16T01:32:37.233Z,69.06
2022-11-16T01:33:37.865Z,69.44
2022-11-16T01:34:37.627Z,70.03
2022-11-16T01:35:37.177Z,63.99
2022-11-16T01:36:37.195Z,70.61
2022-11-16T01:37:37.147Z,66.76
2022-11-16T01:38:37.353Z,70.73
2022-11-16T01:39:37.151Z,67.25
2022-11-16T01:40:37.875Z,65.48
2022-11-16T01:41:38.008Z,69.19
2022-11-16T01:42:37.876Z,68.22
2022-11-16T01:43:38.039Z,71.21
2022-11-16T01:44:37.078Z,67.96
2022-11-16T01:45:37.019Z,69.86
2022-11-16T01:46:36.997Z,67.59
2022-11-16T01:47:36.989Z,70.67
2022-11-16T01:48:37.352Z,67.06
2022-11-16T01:49:37.935Z,68.77
2022-11-16T01:50:36.919Z,67.64
2022-11-16T01:51:38.008Z,65.91
2022-11-16T01:52:36.913Z,68.26
2022-11-16T01:53:36.887Z,69.26
2022-11-16T01:54:36.888Z,69.60
2022-11-16T01:55:37.454Z,67.12
2022-11-16T01:56:36.842Z,70.92
2022-11-16T01:57:36.804Z,70.45
2022-11-16T01:58:36.982Z,71.23
2022-11-16T01:59:36.931Z,70.06
2022-11-16T02:00:36.776Z,71.30
2022-11-16T02:01:36.800Z,67.95
2022-11-16T02:02:36.738Z,69.07
2022-11-16T02:03:36.733Z,66.89
2022-11-16T02:04:37.507Z,68.34
2022-11-16T02:05:36.675Z,67.47
2022-11-16T02:06:36.659Z,67.64
2022-11-16T02:07:36.730Z,69.44
2022-11-16T02:08:36.722Z,68.55
2022-11-16T02:09:37.552Z,68.12
2022-11-16T02:10:36.601Z,69.27
2022-11-16T02:11:36.588Z,68.34
2022-11-16T02:12:36.562Z,65.26
2022-11-16T02:13:36.552Z,71.37
2022-11-16T02:14:36.563Z,68.46
2022-11-16T02:15:36.582Z,71.26
2022-11-16T02:16:36.493Z,71.02
2022-11-16T02:17:37.375Z,69.04
2022-11-16T02:18:36.647Z,68.33
2022-11-16T02:19:37.481Z,70.01
2022-11-16T02:20:36.440Z,65.57
2022-11-16T02:21:36.414Z,70.17
2022-11-16T02:22:36.405Z,70.64
2022-11-16T02:23:36.379Z,68.86
2022-11-16T02:24:36.439Z,70.41
2022-11-16T02:25:36.994Z,67.11
2022-11-16T02:26:36.348Z,70.54
2022-11-16T02:27:36.318Z,70.65
2022-11-16T02:28:36.580Z,69.04
2022-11-16T02:29:36.359Z,70.73
2022-11-16T02:30:36.259Z,68.74
2022-11-16T02:31:36.233Z,69.25
2022-11-16T02:32:37.045Z,68.50
2022-11-16T02:33:36.199Z,67.27
2022-11-16T02:34:36.340Z,69.99
2022-11-16T02:35:36.177Z,70.29
2022-11-16T02:36:36.154Z,69.87
2022-11-16T02:37:36.129Z,67.50
2022-11-16T02:38:36.972Z,70.70
2022-11-16T02:39:36.108Z,70.80
2022-11-16T02:40:36.111Z,70.19
2022-11-16T02:41:36.079Z,69.60
2022-11-16T02:42:36.091Z,67.21
2022-11-16T02:43:36.042Z,70.58
2022-11-16T02:44:36.005Z,71.60
2022-11-16T02:45:36.022Z,70.12
2022-11-16T02:46:36.005Z,71.90
2022-11-16T02:47:36.862Z,70.46
2022-11-16T02:48:36.225Z,70.34
2022-11-16T02:49:35.928Z,69.63
2022-11-16T02:50:35.946Z,70.21
2022-11-16T02:51:35.889Z,69.29
2022-11-16T02:52:35.881Z,70.42
2022-11-16T02:53:35.912Z,66.84
2022-11-16T02:54:36.802Z,65.75
2022-11-16T02:55:35.872Z,67.81
2022-11-16T02:56:35.797Z,72.28
2022-11-16T02:57:35.791Z,70.60
2022-11-16T02:58:35.856Z,68.73
2022-11-16T02:59:35.803Z,69.99
2022-11-16T03:00:35.801Z,71.44
2022-11-16T03:01:35.717Z,70.90
2022-11-16T03:02:35.704Z,70.80
2022-11-16T03:03:36.357Z,68.87
2022-11-16T03:04:36.494Z,69.44
2022-11-16T03:05:36.298Z,67.74
2022-11-16T03:06:35.631Z,69.66
2022-11-16T03:07:36.620Z,72.30
2022-11-16T03:08:35.788Z,72.94
2022-11-16T03:09:35.578Z,69.27
2022-11-16T03:10:35.587Z,71.19
2022-11-16T03:11:35.543Z,69.46
2022-11-16T03:12:35.537Z,70.22
2022-11-16T03:13:35.507Z,68.41
2022-11-16T03:14:36.405Z,69.95
2022-11-16T03:15:36.432Z,69.45
2022-11-16T03:16:35.475Z,70.09
2022-11-16T03:17:35.429Z,72.42
2022-11-16T03:18:36.721Z,73.20
2022-11-16T03:19:35.477Z,71.39
2022-11-16T03:20:35.431Z,70.92
2022-11-16T03:21:35.371Z,69.36
2022-11-16T03:22:35.352Z,72.66
2022-11-16T03:23:35.391Z,70.36
2022-11-16T03:24:35.327Z,70.89
2022-11-16T03:25:35.327Z,69.42
2022-11-16T03:27:07.644Z,71.50
2022-11-16T03:27:36.309Z,70.80
2022-11-16T03:28:35.538Z,68.64
2022-11-16T03:29:35.236Z,72.94
2022-11-16T03:30:35.321Z,70.60
2022-11-16T03:31:35.202Z,70.63
2022-11-16T03:32:35.215Z,72.50
2022-11-16T03:33:35.203Z,70.99
2022-11-16T03:34:35.804Z,71.26
2022-11-16T03:35:35.908Z,73.46
2022-11-16T03:36:35.143Z,69.83
2022-11-16T03:37:35.102Z,69.24
2022-11-16T03:38:35.366Z,71.80
2022-11-16T03:39:35.820Z,72.08
2022-11-16T03:40:35.997Z,72.19
2022-11-16T03:41:35.029Z,69.90
2022-11-16T03:42:35.019Z,71.76
2022-11-16T03:43:35.000Z,70.99
2022-11-16T03:44:34.984Z,70.97
2022-11-16T03:45:34.997Z,68.69
2022-11-16T03:46:34.942Z,71.34
2022-11-16T03:47:34.927Z,71.28
2022-11-16T03:48:35.258Z,72.03
2022-11-16T03:49:35.566Z,72.57
2022-11-16T03:50:34.912Z,70.64
2022-11-16T03:51:34.890Z,72.49
2022-11-16T03:52:34.843Z,72.02
2022-11-16T03:53:34.828Z,71.54
2022-11-16T03:54:34.802Z,70.24
2022-11-16T03:55:34.872Z,72.09
2022-11-16T03:56:35.539Z,73.09
2022-11-16T03:57:35.747Z,69.67
2022-11-16T03:58:35.816Z,71.33
2022-11-16T03:59:34.747Z,74.00
2022-11-16T04:00:34.847Z,72.52
2022-11-16T04:01:34.689Z,68.64
2022-11-16T04:02:34.665Z,71.79
2022-11-16T04:03:34.651Z,72.57
2022-11-16T04:04:34.634Z,73.16
2022-11-16T04:05:34.654Z,68.71
2022-11-16T04:06:35.353Z,70.46
2022-11-16T04:07:34.653Z,71.63
2022-11-16T04:08:34.996Z,70.03
2022-11-16T04:09:34.539Z,70.74
2022-11-16T04:10:34.567Z,72.81
2022-11-16T04:11:34.502Z,71.27
2022-11-16T04:12:34.502Z,70.64
2022-11-16T04:13:35.361Z,68.58
2022-11-16T04:14:34.464Z,72.13
2022-11-16T04:15:34.472Z,72.15
2022-11-16T04:16:34.429Z,70.29
2022-11-16T04:17:34.409Z,72.82
2022-11-16T04:18:35.732Z,73.43
2022-11-16T04:19:34.557Z,71.65
2022-11-16T04:20:35.385Z,72.06
2022-11-16T04:21:34.331Z,72.07
2022-11-16T04:22:34.322Z,73.79
2022-11-16T04:23:34.328Z,71.77
2022-11-16T04:24:34.294Z,72.28
2022-11-16T04:25:34.301Z,73.10
2022-11-16T04:26:34.975Z,73.63
2022-11-16T04:27:34.224Z,72.25
2022-11-16T04:28:34.383Z,71.07
2022-11-16T04:29:34.213Z,73.58
2022-11-16T04:30:34.218Z,73.44
2022-11-16T04:31:34.182Z,71.83
2022-11-16T04:32:34.143Z,73.67
2022-11-16T04:33:34.134Z,71.11
2022-11-16T04:34:34.115Z,72.33
2022-11-16T04:35:34.133Z,73.70
2022-11-16T04:36:34.076Z,72.12
2022-11-16T04:37:34.117Z,72.72
2022-11-16T04:38:34.512Z,72.24
2022-11-16T04:39:34.850Z,73.86
2022-11-16T04:40:34.449Z,73.46
2022-11-16T04:41:34.794Z,73.02
2022-11-16T04:42:33.987Z,73.49
2022-11-16T04:43:33.961Z,71.08
2022-11-16T04:44:33.944Z,72.43
2022-11-16T04:45:33.963Z,73.90
2022-11-16T04:46:33.926Z,70.23
2022-11-16T04:47:33.893Z,73.49
2022-11-16T04:48:35.361Z,73.00
2022-11-16T04:49:33.855Z,73.58
2022-11-16T04:50:33.888Z,73.58
2022-11-16T04:51:33.827Z,71.79
2022-11-16T04:52:33.891Z,73.15
2022-11-16T04:53:34.388Z,72.86
2022-11-16T04:54:33.823Z,73.84
2022-11-16T04:55:33.794Z,72.89
2022-11-16T04:56:33.766Z,73.24
2022-11-16T04:57:33.729Z,72.98
2022-11-16T04:58:33.981Z,73.04
2022-11-16T04:59:33.711Z,73.53
2022-11-16T05:00:34.388Z,71.53
2022-11-16T05:01:33.793Z,72.19
2022-11-16T05:02:33.636Z,74.19
2022-11-16T05:03:33.626Z,73.53
2022-11-16T05:04:33.614Z,73.79
2022-11-16T05:05:33.613Z,73.57
2022-11-16T05:06:33.570Z,72.52
2022-11-16T05:07:33.617Z,73.29
2022-11-16T05:08:33.803Z,72.43
2022-11-16T05:09:33.521Z,71.96
2022-11-16T05:10:33.635Z,73.08
2022-11-16T05:11:33.487Z,73.12
2022-11-16T05:12:33.465Z,71.33
2022-11-16T05:13:34.027Z,73.30
2022-11-16T05:14:33.423Z,72.68
2022-11-16T05:15:33.463Z,72.68
2022-11-16T05:16:33.387Z,74.64
2022-11-16T05:17:33.374Z,73.89
2022-11-16T05:18:33.745Z,70.51
2022-11-16T05:19:33.342Z,71.93
2022-11-16T05:20:33.400Z,74.27
2022-11-16T05:21:34.316Z,73.71
2022-11-16T05:22:33.299Z,71.81
2022-11-16T05:23:33.266Z,75.02
2022-11-16T05:24:33.262Z,73.56
2022-11-16T05:25:36.687Z,73.57
2022-11-16T05:26:34.969Z,72.66
2022-11-16T05:27:33.195Z,73.44
2022-11-16T05:28:33.554Z,74.08
2022-11-16T05:29:33.167Z,74.54
2022-11-16T05:30:33.157Z,74.09
2022-11-16T05:31:37.663Z,73.44
2022-11-16T05:32:35.116Z,74.93
2022-11-16T05:33:33.123Z,73.02
2022-11-16T05:34:33.955Z,74.62
2022-11-16T05:35:33.096Z,71.39
2022-11-16T05:36:33.080Z,73.70
2022-11-16T05:37:33.037Z,73.26
2022-11-16T05:38:33.392Z,71.86
2022-11-16T05:39:33.006Z,73.06
2022-11-16T05:40:32.978Z,73.31
2022-11-16T05:41:33.024Z,72.19
2022-11-16T05:42:32.939Z,70.82
2022-11-16T05:43:32.969Z,74.08
2022-11-16T05:44:32.907Z,74.29
2022-11-16T05:45:32.898Z,72.75
2022-11-16T05:46:32.962Z,73.79
2022-11-16T05:47:32.913Z,73.86
2022-11-16T05:48:33.216Z,74.42
2022-11-16T05:49:32.847Z,73.04
2022-11-16T05:50:32.809Z,74.14
2022-11-16T05:51:32.852Z,73.87
2022-11-16T05:52:33.472Z,73.70
2022-11-16T05:53:32.750Z,72.81
2022-11-16T05:54:32.750Z,73.87
2022-11-16T05:55:32.768Z,73.10
2022-11-16T05:56:32.789Z,73.07
2022-11-16T05:57:32.681Z,73.87
2022-11-16T05:58:33.176Z,74.45
2022-11-16T05:59:33.488Z,73.76
2022-11-16T06:00:32.649Z,73.51
2022-11-16T06:01:32.665Z,72.95
2022-11-16T06:02:32.613Z,73.91
2022-11-16T06:03:32.663Z,74.15
2022-11-16T06:04:32.586Z,74.56
2022-11-16T06:05:35.145Z,74.12
2022-11-16T06:06:34.678Z,73.54
2022-11-16T06:07:32.634Z,72.91
2022-11-16T06:08:32.825Z,72.50
2022-11-16T06:09:32.480Z,71.79
2022-11-16T06:10:33.331Z,73.64
2022-11-16T06:11:36.016Z,73.37
2022-11-16T06:12:33.439Z,72.88
2022-11-16T06:13:32.416Z,73.04
2022-11-16T06:14:32.398Z,73.27
2022-11-16T06:15:32.395Z,73.06
2022-11-16T06:16:32.755Z,71.79
2022-11-16T06:17:33.268Z,71.70
2022-11-16T06:18:32.721Z,72.76
2022-11-16T06:19:32.806Z,71.97
2022-11-16T06:20:33.298Z,73.93
2022-11-16T06:21:32.304Z,72.17
2022-11-16T06:22:32.292Z,72.33
2022-11-16T06:23:32.237Z,73.43
2022-11-16T06:24:32.240Z,72.92
2022-11-16T06:25:32.222Z,73.71
2022-11-16T06:26:32.774Z,72.49
2022-11-16T06:27:32.898Z,74.79
2022-11-16T06:28:32.499Z,73.47
2022-11-16T06:29:32.196Z,72.95
2022-11-16T06:30:32.180Z,72.75
2022-11-16T06:31:32.156Z,72.09
2022-11-16T06:32:33.710Z,73.12
2022-11-16T06:33:33.703Z,73.92
2022-11-16T06:34:33.085Z,72.61
2022-11-16T06:35:32.035Z,74.10
2022-11-16T06:36:32.075Z,73.79
2022-11-16T06:37:32.004Z,72.64
2022-11-16T06:38:32.399Z,73.70
2022-11-16T06:39:31.977Z,74.14
2022-11-16T06:43:17.575Z,72.62
2022-11-16T06:44:17.557Z,71.37
2022-11-16T06:45:17.545Z,73.63
2022-11-16T06:46:17.571Z,72.74
2022-11-16T06:47:17.506Z,72.34
2022-11-16T06:48:17.554Z,74.52
2022-11-16T06:49:17.458Z,73.46
2022-11-16T06:50:17.479Z,72.34
2022-11-16T06:51:17.451Z,72.53
2022-11-16T06:52:17.401Z,72.72
2022-11-16T06:53:17.384Z,73.34
2022-11-16T06:54:17.365Z,72.88
2022-11-16T06:55:17.362Z,71.96
2022-11-16T06:56:17.354Z,72.41
2022-11-16T06:57:17.319Z,72.99
2022-11-16T06:58:17.296Z,71.62
2022-11-16T06:59:17.274Z,72.20
2022-11-16T07:00:17.273Z,72.85
2022-11-16T07:01:17.312Z,72.89
2022-11-16T07:02:17.208Z,73.22
2022-11-16T07:03:17.194Z,72.62
2022-11-16T07:04:17.407Z,72.55
2022-11-16T07:05:17.167Z,73.30
2022-11-16T07:06:17.182Z,72.52
2022-11-16T07:07:17.139Z,72.34
2022-11-16T07:08:17.100Z,73.59
2022-11-16T07:09:17.092Z,72.71
2022-11-16T07:10:17.071Z,71.69
2022-11-16T07:11:17.099Z,70.94
2022-11-16T07:12:18.191Z,72.76
2022-11-16T07:13:18.167Z,73.68
2022-11-16T07:14:18.161Z,70.62
2022-11-16T07:15:18.133Z,72.55
2022-11-16T07:16:18.156Z,73.20
2022-11-16T07:17:18.107Z,71.02
2022-11-16T07:18:18.103Z,73.66
2022-11-16T07:19:18.061Z,72.79
2022-11-16T07:20:18.059Z,71.54
2022-11-16T07:21:18.058Z,70.00
2022-11-16T07:22:18.015Z,72.20
2022-11-16T07:23:18.001Z,72.24
2022-11-16T07:24:17.973Z,70.14
2022-11-16T07:25:17.975Z,72.85
2022-11-16T07:26:17.976Z,73.55
2022-11-16T07:27:17.941Z,71.76
2022-11-16T07:28:17.911Z,71.45
2022-11-16T07:29:17.904Z,72.95
2022-11-16T07:30:17.876Z,71.41
2022-11-16T07:31:18.054Z,71.20
2022-11-16T07:32:17.837Z,73.62
2022-11-16T07:33:18.833Z,71.91
2022-11-16T07:34:17.816Z,69.61
2022-11-16T07:35:17.792Z,72.20
2022-11-16T07:36:17.842Z,72.27
2022-11-16T07:37:17.767Z,73.67
2022-11-16T07:38:18.238Z,71.81
2022-11-16T07:39:18.742Z,72.57
2022-11-16T07:40:17.726Z,71.60
2022-11-16T07:41:17.746Z,70.06
2022-11-16T07:42:17.675Z,71.87
2022-11-16T07:43:17.707Z,71.43
2022-11-16T07:44:17.672Z,70.19
2022-11-16T07:45:17.626Z,72.08
2022-11-16T07:46:45.342Z,70.71
2022-11-16T07:47:19.606Z,71.17
2022-11-16T07:48:17.567Z,71.77
2022-11-16T07:49:17.551Z,71.79
2022-11-16T07:50:17.542Z,72.37
2022-11-16T07:51:17.527Z,71.97
2022-11-16T07:52:17.563Z,70.76
2022-11-16T07:53:17.490Z,72.17
2022-11-16T07:54:17.461Z,73.13
2022-11-16T07:55:17.463Z,71.30
2022-11-16T07:56:17.469Z,70.89
2022-11-16T07:57:17.425Z,70.19
2022-11-16T07:58:17.396Z,71.34
2022-11-16T07:59:17.381Z,72.48
2022-11-16T08:00:17.365Z,72.56
2022-11-16T08:01:17.412Z,71.19
2022-11-16T08:02:17.439Z,72.31
2022-11-16T08:03:21.820Z,72.49
2022-11-16T08:04:19.294Z,71.65
2022-11-16T08:05:17.277Z,69.94
2022-11-16T08:06:17.283Z,72.95
2022-11-16T08:07:17.328Z,70.27
2022-11-16T08:08:17.334Z,71.12
2022-11-16T08:09:17.211Z,72.44
2022-11-16T08:10:17.283Z,70.11
2022-11-16T08:11:17.171Z,72.08
2022-11-16T08:12:17.188Z,73.47
2022-11-16T08:13:17.144Z,71.66
2022-11-16T08:14:17.131Z,71.48
2022-11-16T08:15:17.094Z,71.64
2022-11-16T08:16:17.093Z,71.74
2022-11-16T08:17:17.107Z,68.92
2022-11-16T08:18:17.154Z,70.69
2022-11-16T08:19:17.036Z,69.72
2022-11-16T08:20:17.018Z,71.96
2022-11-16T08:21:17.030Z,72.48
2022-11-16T08:22:17.049Z,70.93
2022-11-16T08:23:17.062Z,71.45
2022-11-16T08:24:17.013Z,71.09
2022-11-16T08:25:16.935Z,72.36
2022-11-16T08:26:16.916Z,70.76
2022-11-16T08:27:16.929Z,71.15
2022-11-16T08:28:16.889Z,72.06
2022-11-16T08:29:16.871Z,73.17
2022-11-16T08:30:16.853Z,73.25
2022-11-16T08:31:16.838Z,71.13
2022-11-16T08:32:16.853Z,72.00
2022-11-16T08:33:16.839Z,71.93
2022-11-16T08:34:16.787Z,72.30
2022-11-16T08:35:16.775Z,72.10
2022-11-16T08:36:16.767Z,71.70
2022-11-16T08:37:16.805Z,71.34
2022-11-16T08:38:16.706Z,72.39
2022-11-16T08:39:16.697Z,71.61
2022-11-16T08:40:16.669Z,72.06
2022-11-16T08:41:16.660Z,72.90
2022-11-16T08:42:17.226Z,71.24
2022-11-16T08:43:16.672Z,70.74
2022-11-16T08:44:16.623Z,72.17
2022-11-16T08:45:16.637Z,70.41
2022-11-16T08:46:16.582Z,70.11
2022-11-16T08:47:16.597Z,71.53
2022-11-16T08:48:16.541Z,68.71
2022-11-16T08:49:16.528Z,71.78
2022-11-16T08:50:16.516Z,71.34
2022-11-16T08:51:18.594Z,71.51
2022-11-16T08:52:17.500Z,72.03
2022-11-16T08:53:16.449Z,71.02
2022-11-16T08:54:16.433Z,71.13
2022-11-16T08:55:16.435Z,70.24
2022-11-16T08:56:16.400Z,71.95
2022-11-16T08:57:16.421Z,71.10
2022-11-16T08:58:16.411Z,69.89
2022-11-16T08:59:16.363Z,70.89
2022-11-16T09:00:16.340Z,71.15
2022-11-16T09:01:16.404Z,71.53
2022-11-16T09:02:16.357Z,71.00
2022-11-16T09:03:17.311Z,70.99
2022-11-16T09:04:16.314Z,71.41
2022-11-16T09:05:16.255Z,70.99
2022-11-16T09:06:16.225Z,70.85
2022-11-16T09:07:16.294Z,71.79
2022-11-16T09:08:16.200Z,71.62
2022-11-16T09:09:16.193Z,70.43
2022-11-16T09:10:16.190Z,72.44
2022-11-16T09:11:16.171Z,71.35
2022-11-16T09:12:16.259Z,69.55
2022-11-16T09:13:16.145Z,71.29
2022-11-16T09:14:16.118Z,69.77
2022-11-16T09:15:16.077Z,69.47
2022-11-16T09:16:16.091Z,69.39
2022-11-16T09:17:21.735Z,71.14
2022-11-16T09:18:18.073Z,70.06
2022-11-16T09:19:16.007Z,72.05
2022-11-16T09:20:15.997Z,71.27
2022-11-16T09:21:15.973Z,70.59
2022-11-16T09:22:15.978Z,69.24
2022-11-16T09:23:17.801Z,69.21
2022-11-16T09:24:16.936Z,68.69
2022-11-16T09:25:15.905Z,69.73
2022-11-16T09:26:15.892Z,68.72
2022-11-16T09:27:15.958Z,69.97
2022-11-16T09:28:15.919Z,69.25
2022-11-16T09:29:15.842Z,67.48
2022-11-16T09:30:15.821Z,69.25
2022-11-16T09:31:20.369Z,69.14
2022-11-16T09:32:17.835Z,69.18
2022-11-16T09:33:15.781Z,67.35
2022-11-16T09:34:15.755Z,70.31
2022-11-16T09:35:15.741Z,70.27
2022-11-16T09:36:15.724Z,69.16
2022-11-16T09:37:15.732Z,69.18
2022-11-16T09:38:22.152Z,69.66
2022-11-16T09:39:33.010Z,69.78
2022-11-16T09:40:17.738Z,71.01
2022-11-16T09:41:15.635Z,70.70
2022-11-16T09:42:15.657Z,69.83
2022-11-16T09:43:15.599Z,68.42
2022-11-16T09:44:15.688Z,69.95
2022-11-16T09:45:15.579Z,68.96
2022-11-16T09:46:15.560Z,70.57
2022-11-16T09:47:15.572Z,69.17
2022-11-16T09:48:15.522Z,69.17
2022-11-16T09:49:17.613Z,70.03
2022-11-16T09:50:16.485Z,69.54
2022-11-16T09:51:15.531Z,69.18
2022-11-16T09:52:15.476Z,70.18
2022-11-16T09:53:15.434Z,69.07
2022-11-16T09:54:15.417Z,70.33
2022-11-16T09:55:16.228Z,68.65
2022-11-16T09:56:21.720Z,70.70
2022-11-16T09:57:17.393Z,71.13
2022-11-16T09:58:15.346Z,68.71
2022-11-16T09:59:18.270Z,69.15
2022-11-16T10:00:16.399Z,70.91
2022-11-16T10:01:15.340Z,68.96
2022-11-16T10:02:15.313Z,71.00
2022-11-16T10:03:15.266Z,70.57
2022-11-16T10:04:15.236Z,70.29
2022-11-16T10:05:15.230Z,69.73
2022-11-16T10:06:15.216Z,69.05
2022-11-16T10:07:15.287Z,69.95
2022-11-16T10:08:15.174Z,69.94
2022-11-16T10:09:15.171Z,70.59
2022-11-16T10:10:15.135Z,69.82
2022-11-16T10:11:15.128Z,70.36
2022-11-16T10:12:15.132Z,69.23
2022-11-16T10:13:15.083Z,69.33
2022-11-16T10:14:15.077Z,68.51
2022-11-16T10:15:15.055Z,68.95
2022-11-16T10:16:15.043Z,70.84
2022-11-16T10:17:15.054Z,68.82
2022-11-16T10:18:15.031Z,70.26
2022-11-16T10:19:14.989Z,68.51
2022-11-16T10:20:14.980Z,69.93
2022-11-16T10:21:14.980Z,69.90
2022-11-16T10:22:14.990Z,69.64
2022-11-16T10:23:14.949Z,68.91
2022-11-16T10:24:14.934Z,67.62
2022-11-16T10:25:14.911Z,70.65
2022-11-16T10:26:14.879Z,69.61
2022-11-16T10:27:19.226Z,68.32
2022-11-16T10:28:16.863Z,68.30
2022-11-16T10:29:14.841Z,67.17
2022-11-16T10:30:14.861Z,68.73
2022-11-16T10:31:14.804Z,69.56
2022-11-16T10:32:14.878Z,69.11
2022-11-16T10:33:14.771Z,70.02
2022-11-16T10:34:14.759Z,69.26
2022-11-16T10:35:14.731Z,68.84
2022-11-16T10:36:14.721Z,69.05
2022-11-16T10:37:14.724Z,70.47
2022-11-16T10:38:14.683Z,69.56
2022-11-16T10:39:14.677Z,69.69
2022-11-16T10:40:14.675Z,69.09
2022-11-16T10:41:14.632Z,68.67
2022-11-16T10:42:14.629Z,69.57
2022-11-16T10:43:14.589Z,71.67
2022-11-16T10:44:14.583Z,70.04
2022-11-16T10:45:14.554Z,69.05
2022-11-16T10:46:14.558Z,68.49
2022-11-16T10:47:14.578Z,69.67
2022-11-16T10:48:14.575Z,70.36
2022-11-16T10:49:14.500Z,68.35
2022-11-16T10:50:14.468Z,69.14
2022-11-16T10:51:14.447Z,69.71
2022-11-16T10:52:14.477Z,68.85
2022-11-16T10:53:14.427Z,70.14
2022-11-16T10:54:14.412Z,68.52
2022-11-16T10:55:14.400Z,68.82
2022-11-16T10:56:14.375Z,68.85
2022-11-16T10:57:14.395Z,70.46
2022-11-16T10:58:14.338Z,67.64
2022-11-16T10:59:14.324Z,69.09
2022-11-16T11:00:18.337Z,70.12
2022-11-16T11:01:16.340Z,69.80
2022-11-16T11:02:14.309Z,68.82
2022-11-16T11:03:14.258Z,68.75
2022-11-16T11:04:14.248Z,70.03
2022-11-16T11:05:14.242Z,70.27
2022-11-16T11:06:14.215Z,69.78
2022-11-16T11:07:14.255Z,70.09
2022-11-16T11:08:14.173Z,71.83
2022-11-16T11:09:14.154Z,69.76
2022-11-16T11:10:14.177Z,69.43
2022-11-16T11:11:14.119Z,70.48
2022-11-16T11:12:14.164Z,70.26
2022-11-16T11:13:14.081Z,67.87
2022-11-16T11:14:14.083Z,65.62
2022-11-16T11:15:14.052Z,67.79
2022-11-16T11:16:14.036Z,68.44
2022-11-16T11:17:14.048Z,69.88
2022-11-16T11:18:14.011Z,70.83
2022-11-16T11:19:13.991Z,70.21
2022-11-16T11:20:14.030Z,68.91
2022-11-16T11:21:13.950Z,67.73
2022-11-16T11:22:13.976Z,68.82
2022-11-16T11:23:13.933Z,70.97
2022-11-16T11:24:42.820Z,70.15
2022-11-16T11:25:15.878Z,69.88
2022-11-16T11:26:13.866Z,69.42
2022-11-16T11:27:13.916Z,70.07
2022-11-16T11:28:13.873Z,69.45
2022-11-16T11:29:13.840Z,69.02
2022-11-16T11:30:13.797Z,69.24
2022-11-16T11:31:14.743Z,69.08
2022-11-16T11:32:15.187Z,68.95
2022-11-16T11:33:13.752Z,69.35
2022-11-16T11:34:13.742Z,69.69
2022-11-16T11:35:13.716Z,69.58
2022-11-16T11:36:13.801Z,69.63
2022-11-16T11:37:13.714Z,70.42
2022-11-16T11:38:13.721Z,70.80
2022-11-16T11:39:13.695Z,69.11
2022-11-16T11:40:13.674Z,70.82
2022-11-16T11:41:13.611Z,68.72
2022-11-16T11:42:13.641Z,68.60
2022-11-16T11:43:18.706Z,68.02
2022-11-16T11:44:15.569Z,65.80
2022-11-16T11:45:13.605Z,68.21
2022-11-16T11:46:13.536Z,69.26
2022-11-16T11:48:15.536Z,68.58
2022-11-16T11:49:13.497Z,70.25
2022-11-16T11:50:13.460Z,69.59
2022-11-16T11:51:13.450Z,68.86
2022-11-16T11:52:13.424Z,69.26
2022-11-16T11:53:13.632Z,69.72
2022-11-16T11:54:13.392Z,67.79
2022-11-16T11:55:13.388Z,68.48
2022-11-16T11:56:13.365Z,66.50
2022-11-16T11:57:13.342Z,68.26
2022-11-16T11:58:13.365Z,66.63
2022-11-16T11:59:13.314Z,68.24
2022-11-16T12:00:13.327Z,68.84
2022-11-16T12:01:13.297Z,67.72
2022-11-16T12:02:13.282Z,66.96
2022-11-16T12:03:13.308Z,67.37
2022-11-16T12:04:13.243Z,67.81
2022-11-16T12:05:13.208Z,68.01
2022-11-16T12:06:13.200Z,69.73
2022-11-16T12:07:13.223Z,69.05
2022-11-16T12:08:13.255Z,66.77
2022-11-16T12:09:13.166Z,71.32
2022-11-16T12:10:13.183Z,67.89
2022-11-16T12:11:13.112Z,68.04
2022-11-16T12:12:14.870Z,67.06
2022-11-16T12:13:14.123Z,68.09
2022-11-16T12:14:13.268Z,69.03
2022-11-16T12:15:13.048Z,69.50
2022-11-16T12:16:13.022Z,68.96
2022-11-16T12:17:13.011Z,69.22
2022-11-16T12:18:13.020Z,67.52
2022-11-16T12:19:12.982Z,67.98
2022-11-16T12:20:13.019Z,69.03
2022-11-16T12:21:12.979Z,66.29
2022-11-16T12:22:12.942Z,69.54
2022-11-16T12:23:12.963Z,68.96
2022-11-16T12:24:12.901Z,68.91
2022-11-16T12:25:12.888Z,69.37
2022-11-16T12:26:12.871Z,69.81
2022-11-16T12:27:12.858Z,67.66
2022-11-16T12:28:12.854Z,66.73
2022-11-16T12:29:12.807Z,68.10
2022-11-16T12:30:12.841Z,69.46
2022-11-16T12:31:12.777Z,67.24
2022-11-16T12:32:12.767Z,67.21
2022-11-16T12:33:12.784Z,66.05
2022-11-16T12:34:12.729Z,68.47
2022-11-16T12:35:12.721Z,66.39
2022-11-16T12:36:12.694Z,67.73
2022-11-16T12:37:12.685Z,67.30
2022-11-16T12:38:12.698Z,68.72
2022-11-16T12:39:12.655Z,67.29
2022-11-16T12:40:12.721Z,69.06
2022-11-16T12:41:12.620Z,69.64
2022-11-16T12:42:12.596Z,67.98
2022-11-16T12:43:12.607Z,66.44
2022-11-16T12:44:12.561Z,64.69
2022-11-16T12:45:12.574Z,67.53
2022-11-16T12:46:12.525Z,67.04
2022-11-16T12:47:12.511Z,67.46
2022-11-16T12:48:12.534Z,67.98
2022-11-16T12:49:12.481Z,69.02
2022-11-16T12:50:12.529Z,67.85
2022-11-16T12:51:12.449Z,68.11
2022-11-16T12:52:12.443Z,68.01
2022-11-16T12:53:12.442Z,65.80
2022-11-16T12:54:12.407Z,67.85
2022-11-16T12:55:25.805Z,67.93
2022-11-16T12:56:14.442Z,67.79